Time;durP1;ratioP1;P1;durP2;ratioP2;P2;SDS_P1;SDS_P2;PMS_P1;PMS_P2;Temp;Humidity;BMP_temperature;BMP_pressure;BME280_temperature;BME280_humidity;BME280_pressure;Samples;Min_cycle;Max_cycle;Signal;HPM_P1;HPM_P2
2022/03/16 00:01:44;;;;;;;24.40;2.37;;;;;;;20.31;45.02;99958.66;7313757;19;152797;-38
2022/03/16 00:04:09;;;;;;;28.45;2.30;;;;;;;20.39;44.40;99966.72;7313777;19;159582;-39
2022/03/16 00:06:34;;;;;;;18.65;1.73;;;;;;;20.29;44.38;99945.75;7314030;19;157827;-37
2022/03/16 00:09:00;;;;;;;23.50;2.13;;;;;;;20.31;44.29;99950.84;7313072;19;154910;-38
2022/03/16 00:11:25;;;;;;;27.80;2.70;;;;;;;20.40;44.23;99968.34;7313110;19;154273;-38
2022/03/16 00:13:50;;;;;;;22.13;2.17;;;;;;;20.40;44.48;99969.19;7311839;19;159105;-38
2022/03/16 00:16:15;;;;;;;30.52;2.70;;;;;;;20.41;44.16;99970.84;7312237;19;158331;-38
2022/03/16 00:18:41;;;;;;;24.50;2.07;;;;;;;20.40;44.72;99973.59;7313287;19;154517;-40
2022/03/16 00:21:06;;;;;;;29.33;2.57;;;;;;;20.38;44.82;99965.03;7313365;19;154293;-38
2022/03/16 00:23:32;;;;;;;19.20;1.90;;;;;;;20.40;44.64;99968.34;7315763;19;130324;-38
2022/03/16 00:25:57;;;;;;;12.50;1.50;;;;;;;20.40;44.74;99973.59;7314171;19;130349;-37
2022/03/16 00:28:23;;;;;;;17.75;1.90;;;;;;;20.41;44.51;99970.03;7315014;19;129017;-39
2022/03/16 00:30:48;;;;;;;30.30;2.65;;;;;;;20.40;44.22;99981.41;7312674;19;154662;-38
2022/03/16 00:33:13;;;;;;;27.50;2.60;;;;;;;20.33;44.63;99967.19;7312460;19;159456;-38
2022/03/16 00:35:38;;;;;;;17.08;1.67;;;;;;;20.43;44.75;99989.00;7314105;19;130322;-38
2022/03/16 00:38:04;;;;;;;26.73;2.17;;;;;;;20.43;44.65;99984.63;7313713;19;154442;-39
2022/03/16 00:40:32;;;;;;;10.35;1.23;;;;;;;20.44;44.54;99975.00;7312420;19;129028;-38
2022/03/16 00:42:57;;;;;;;39.67;3.47;;;;;;;20.41;44.16;99975.25;7313257;19;130021;-39
2022/03/16 00:45:23;;;;;;;30.50;2.70;;;;;;;20.42;44.45;99982.13;7312557;19;131061;-38
2022/03/16 00:47:49;;;;;;;24.05;2.08;;;;;;;20.41;44.10;99983.09;7315198;19;129100;-39
2022/03/16 00:50:14;;;;;;;21.25;1.85;;;;;;;20.41;44.55;99985.69;7311478;19;130157;-39
2022/03/16 00:52:39;;;;;;;18.73;1.70;;;;;;;20.43;44.00;99983.78;7312313;19;158531;-38
2022/03/16 00:55:05;;;;;;;32.30;2.97;;;;;;;20.42;44.05;99982.13;7307980;19;159404;-39
2022/03/16 00:57:31;;;;;;;18.50;1.67;;;;;;;20.42;44.45;99987.34;7312805;19;129205;-37
2022/03/16 00:59:58;;;;;;;22.13;2.25;;;;;;;20.42;44.08;99989.97;7312160;19;129133;-38
2022/03/16 01:02:23;;;;;;;15.88;1.48;;;;;;;20.43;44.74;99986.38;7314142;19;130686;-38
2022/03/16 01:04:48;;;;;;;37.50;3.42;;;;;;;20.42;44.20;99993.41;7313228;19;129806;-39
2022/03/16 01:07:14;;;;;;;21.42;1.73;;;;;;;20.42;44.88;100000.41;7311798;19;154590;-38
2022/03/16 01:09:39;;;;;;;14.23;1.33;;;;;;;20.40;44.43;100004.91;7311143;19;154396;-40
2022/03/16 01:12:04;;;;;;;22.08;1.80;;;;;;;20.45;44.39;100008.00;7312837;19;129404;-38
2022/03/16 01:14:30;;;;;;;23.20;2.17;;;;;;;20.44;44.72;100008.97;7311732;19;130765;-41
2022/03/16 01:16:55;;;;;;;32.42;2.83;;;;;;;20.44;44.13;100006.34;7309744;19;155139;-38
2022/03/16 01:19:20;;;;;;;14.85;1.40;;;;;;;20.41;44.32;100014.44;7310825;19;154022;-38
2022/03/16 01:21:45;;;;;;;26.67;2.20;;;;;;;20.43;44.59;100015.13;7311869;19;158485;-39
2022/03/16 01:24:11;;;;;;;19.30;1.80;;;;;;;20.43;44.54;100017.72;7311327;19;159112;-39
2022/03/16 01:26:36;;;;;;;16.37;1.47;;;;;;;20.43;44.09;100025.56;7309663;19;146286;-37
2022/03/16 01:29:02;;;;;;;36.30;3.08;;;;;;;20.43;44.37;100025.56;7311943;19;128819;-39
2022/03/16 01:31:28;;;;;;;31.45;2.80;;;;;;;20.43;44.20;100020.34;7312125;19;129263;-38
2022/03/16 01:33:53;;;;;;;29.77;2.72;;;;;;;20.44;44.21;100022.81;7311701;19;130201;-39
2022/03/16 01:36:19;;;;;;;21.00;2.03;;;;;;;20.45;44.08;100031.50;7312090;19;129927;-38
2022/03/16 01:38:44;;;;;;;17.48;1.55;;;;;;;20.40;44.23;100020.59;7311095;19;152837;-38
2022/03/16 01:41:09;;;;;;;29.30;2.53;;;;;;;20.42;44.82;100029.13;7313438;19;129700;-38
2022/03/16 01:43:35;;;;;;;18.38;1.42;;;;;;;20.44;44.73;100032.47;7313127;19;129629;-38
2022/03/16 01:46:00;;;;;;;18.83;1.67;;;;;;;20.44;44.19;100025.44;7310795;19;128853;-38
2022/03/16 01:48:25;;;;;;;24.90;2.15;;;;;;;20.45;44.17;100031.50;7311047;19;153958;-38
2022/03/16 01:50:53;;;;;;;26.20;2.30;;;;;;;20.42;44.13;100039.59;7309298;19;158417;-38
2022/03/16 01:53:18;;;;;;;22.80;2.05;;;;;;;20.43;44.50;100041.22;7311668;19;130539;-39
2022/03/16 01:55:44;;;;;;;42.13;3.70;;;;;;;20.45;44.05;100034.94;7311437;19;129158;-38
2022/03/16 01:58:10;;;;;;;23.27;1.95;;;;;;;20.44;44.30;100043.72;7312976;19;129163;-38
2022/03/16 02:00:36;;;;;;;24.70;2.17;;;;;;;20.47;44.53;100047.88;7310177;19;130535;-38
2022/03/16 02:03:01;;;;;;;29.77;2.42;;;;;;;20.35;44.27;100028.78;7312635;19;129665;-38
2022/03/16 02:05:28;;;;;;;25.25;2.25;;;;;;;20.44;44.36;100048.13;7310004;19;154796;-38
2022/03/16 02:07:53;;;;;;;7.63;0.93;;;;;;;20.37;44.25;100041.72;7311663;19;129447;-41
2022/03/16 02:10:20;;;;;;;23.08;1.98;;;;;;;20.45;44.15;100049.78;7310248;19;129826;-38
2022/03/16 02:12:48;;;;;;;28.33;2.33;;;;;;;20.46;44.63;100061.91;7312100;19;130187;-39
2022/03/16 02:15:13;;;;;;;48.22;3.67;;;;;;;20.44;44.04;100063.81;7307607;19;129102;-40
2022/03/16 02:17:39;;;;;;;20.10;1.73;;;;;;;20.43;44.17;100073.41;7310276;19;128921;-38
2022/03/16 02:20:05;;;;;;;23.38;2.13;;;;;;;20.45;44.40;100078.50;7309179;19;130029;-38
2022/03/16 02:22:34;;;;;;;25.38;2.17;;;;;;;20.43;44.22;100077.78;7310910;19;130719;-37
2022/03/16 02:25:00;;;;;;;27.33;2.35;;;;;;;20.45;44.04;100076.72;7310702;19;128839;-38
2022/03/16 02:27:25;;;;;;;27.85;2.40;;;;;;;20.41;44.30;100074.50;7310310;19;129272;-40
2022/03/16 02:29:50;;;;;;;16.60;1.60;;;;;;;20.45;44.19;100102.00;7309142;19;158327;-38
2022/03/16 02:32:16;;;;;;;24.57;2.10;;;;;;;20.45;44.73;100107.22;7309269;19;159340;-40
2022/03/16 02:34:41;;;;;;;34.83;3.20;;;;;;;20.44;44.53;100108.19;7307531;19;153432;-39
2022/03/16 02:37:06;;;;;;;16.13;1.23;;;;;;;20.45;44.39;100109.84;7309410;19;154599;-38
2022/03/16 02:39:32;;;;;;;24.67;2.08;;;;;;;20.46;44.03;100112.34;7309823;19;131033;-38
2022/03/16 02:41:57;;;;;;;33.03;2.92;;;;;;;20.42;44.67;100110.09;7310640;19;130355;-39
2022/03/16 02:44:22;;;;;;;24.30;2.25;;;;;;;20.47;44.63;100123.63;7310943;19;129016;-39
2022/03/16 02:46:47;;;;;;;30.42;2.65;;;;;;;20.47;44.83;100127.06;7308365;19;154620;-38
2022/03/16 02:49:13;;;;;;;25.48;2.35;;;;;;;20.47;44.78;100127.06;7309772;19;129524;-39
2022/03/16 02:51:38;;;;;;;9.82;1.05;;;;;;;20.49;43.99;100134.78;7310372;19;159111;-38
2022/03/16 02:54:03;;;;;;;23.48;1.98;;;;;;;20.47;44.63;100134.06;7308418;19;155011;-38
2022/03/16 02:56:29;;;;;;;28.00;2.38;;;;;;;20.47;44.51;100137.53;7310429;19;130556;-38
2022/03/16 02:58:55;;;;;;;32.85;2.92;;;;;;;20.51;44.40;100145.97;7308226;19;150478;-39
2022/03/16 03:01:20;;;;;;;24.17;2.17;;;;;;;20.46;44.61;100140.25;7311366;19;130356;-38
2022/03/16 03:03:45;;;;;;;30.75;2.58;;;;;;;20.46;44.07;100142.88;7311915;19;129232;-39
2022/03/16 03:06:10;;;;;;;14.63;1.38;;;;;;;20.49;44.65;100155.69;7309392;19;129686;-41
2022/03/16 03:08:36;;;;;;;18.23;1.50;;;;;;;20.48;44.51;100159.22;7308905;19;160017;-38
2022/03/16 03:11:01;;;;;;;24.20;2.13;;;;;;;20.45;44.01;100165.53;7308867;19;158353;-38
2022/03/16 03:13:27;;;;;;;39.83;3.53;;;;;;;20.47;44.25;100183.69;7310101;19;128989;-39
2022/03/16 03:15:52;;;;;;;22.00;1.88;;;;;;;20.47;44.02;100175.84;7308775;19;129343;-38
2022/03/16 03:18:17;;;;;;;31.50;2.95;;;;;;;20.48;44.41;100185.34;7309303;19;134393;-39
2022/03/16 03:20:43;;;;;;;22.48;1.95;;;;;;;20.47;44.45;100186.31;7314309;19;158455;-38
2022/03/16 03:23:08;;;;;;;23.42;2.13;;;;;;;20.46;44.10;100182.03;7315990;19;155123;-40
2022/03/16 03:25:33;;;;;;;16.50;1.42;;;;;;;20.46;44.44;100195.91;7316365;19;129159;-39
2022/03/16 03:27:59;;;;;;;34.92;2.95;;;;;;;20.45;44.27;100186.44;7315906;19;130153;-38
2022/03/16 03:30:24;;;;;;;22.77;2.10;;;;;;;20.48;44.01;100196.63;7312482;19;158471;-38
2022/03/16 03:32:49;;;;;;;30.35;2.45;;;;;;;20.49;44.62;100197.47;7315113;19;155179;-37
2022/03/16 03:35:15;;;;;;;25.48;2.60;;;;;;;20.46;43.90;100195.09;7313415;19;128898;-38
2022/03/16 03:37:40;;;;;;;18.75;1.65;;;;;;;20.47;44.54;100194.16;7316095;19;131157;-39
2022/03/16 03:40:06;;;;;;;30.85;2.80;;;;;;;20.48;44.03;100201.00;7314067;19;130528;-39
2022/03/16 03:42:32;;;;;;;15.93;1.65;;;;;;;20.47;44.52;100199.38;7314528;19;130215;-38
2022/03/16 03:44:57;;;;;;;23.50;2.15;;;;;;;20.48;43.94;100201.00;7314745;19;129883;-39
2022/03/16 03:47:23;;;;;;;23.73;2.20;;;;;;;20.48;44.14;100201.00;7315794;19;130727;-38
2022/03/16 03:49:48;;;;;;;23.73;2.00;;;;;;;20.48;44.35;100201.00;7312802;19;159365;-40
2022/03/16 03:52:13;;;;;;;29.73;2.63;;;;;;;20.44;44.17;100197.00;7314403;19;151778;-39
2022/03/16 03:54:40;;;;;;;29.88;2.72;;;;;;;20.48;44.07;100211.47;7312575;19;154214;-38
2022/03/16 03:57:06;;;;;;;42.00;3.72;;;;;;;20.41;44.22;100199.84;7314187;19;130247;-38
2022/03/16 03:59:31;;;;;;;24.15;1.98;;;;;;;20.40;43.94;100201.63;7314030;19;129739;-38
2022/03/16 04:01:56;;;;;;;32.72;2.88;;;;;;;20.50;44.15;100214.78;7313092;19;154509;-39
2022/03/16 04:04:22;;;;;;;22.17;1.95;;;;;;;20.50;44.67;100225.25;7315506;19;128999;-38
2022/03/16 04:06:47;;;;;;;25.33;2.13;;;;;;;20.50;44.38;100227.84;7313959;19;129158;-38
2022/03/16 04:09:12;;;;;;;20.00;1.73;;;;;;;20.48;43.99;100233.19;7312621;19;158524;-38
2022/03/16 04:11:40;;;;;;;12.93;1.42;;;;;;;20.49;44.77;100234.03;7313574;19;128898;-38
2022/03/16 04:14:06;;;;;;;20.27;1.80;;;;;;;20.50;44.06;100241.75;7313554;19;153150;-39
2022/03/16 04:16:31;;;;;;;18.67;1.67;;;;;;;20.51;43.93;100243.41;7314049;19;129926;-39
2022/03/16 04:18:57;;;;;;;26.17;2.22;;;;;;;20.49;44.09;100247.09;7315059;19;130412;-39
2022/03/16 04:21:22;;;;;;;37.00;3.03;;;;;;;20.50;44.21;100251.38;7313849;19;130322;-38
2022/03/16 04:23:49;;;;;;;27.55;2.47;;;;;;;20.49;44.29;100253.13;7313178;19;154590;-38
2022/03/16 04:26:14;;;;;;;36.83;3.13;;;;;;;20.51;44.22;100258.28;7314149;19;130207;-39
2022/03/16 04:28:40;;;;;;;32.25;2.83;;;;;;;20.50;44.16;100262.66;7314075;19;128985;-38
2022/03/16 04:31:05;;;;;;;22.40;1.92;;;;;;;20.51;44.11;100260.88;7315263;19;129712;-39
2022/03/16 04:33:31;;;;;;;18.33;1.67;;;;;;;20.49;43.96;100266.19;7312395;19;155481;-39
2022/03/16 04:35:56;;;;;;;33.45;2.92;;;;;;;20.51;44.14;100264.31;7313785;19;130175;-38
2022/03/16 04:38:22;;;;;;;38.65;3.38;;;;;;;20.52;44.15;100265.16;7313595;19;130404;-39
2022/03/16 04:40:47;;;;;;;29.37;2.60;;;;;;;20.50;44.46;100261.81;7312070;19;154436;-39
2022/03/16 04:43:13;;;;;;;20.75;1.92;;;;;;;20.43;44.41;100250.16;7315334;19;129792;-38
2022/03/16 04:45:39;;;;;;;21.67;1.88;;;;;;;20.50;44.25;100274.88;7311956;19;130330;-38
2022/03/16 04:48:07;;;;;;;22.13;1.77;;;;;;;20.48;44.35;100272.38;7314621;19;129789;-38
2022/03/16 04:50:34;;;;;;;22.73;1.83;;;;;;;20.51;44.14;100271.34;7310846;19;129031;-38
2022/03/16 04:52:59;;;;;;;22.52;1.77;;;;;;;20.51;44.53;100271.34;7314171;19;129062;-39
2022/03/16 04:55:24;;;;;;;58.83;5.37;;;;;;;20.51;44.25;100276.56;7307863;19;158186;-37
2022/03/16 04:57:50;;;;;;;32.22;2.78;;;;;;;20.50;44.00;100282.72;7311858;19;141765;-38
2022/03/16 05:00:15;;;;;;;27.50;2.43;;;;;;;20.49;43.91;100283.66;7309794;19;153927;-39
2022/03/16 05:02:40;;;;;;;8.07;1.10;;;;;;;20.50;43.82;100293.16;7312041;19;129034;-39
2022/03/16 05:05:06;;;;;;;27.37;2.43;;;;;;;20.43;44.24;100291.94;7308014;19;151751;-40
2022/03/16 05:07:31;;;;;;;37.67;3.20;;;;;;;20.50;43.72;100298.38;7311645;19;130772;-39
2022/03/16 05:09:57;;;;;;;40.97;3.40;;;;;;;20.56;44.05;100303.16;7309179;19;128906;-39
2022/03/16 05:12:22;;;;;;;29.40;2.70;;;;;;;20.52;44.71;100307.78;7309346;19;152530;-38
2022/03/16 05:14:47;;;;;;;28.03;2.70;;;;;;;20.51;44.69;100327.00;7308441;19;157965;-39
2022/03/16 05:17:12;;;;;;;24.97;2.47;;;;;;;20.52;44.74;100333.06;7309368;19;159029;-38
2022/03/16 05:19:37;;;;;;;27.00;2.53;;;;;;;20.49;44.37;100338.53;7309310;19;154363;-39
2022/03/16 05:22:03;;;;;;;21.23;2.27;;;;;;;20.50;44.19;100350.63;7310839;19;154079;-39
2022/03/16 05:24:28;;;;;;;64.82;5.40;;;;;;;20.52;44.21;100353.97;7310543;19;138733;-40
2022/03/16 05:26:53;;;;;;;32.77;3.13;;;;;;;20.51;44.48;100352.31;7307511;19;159475;-39
2022/03/16 05:29:19;;;;;;;24.98;2.08;;;;;;;20.52;44.17;100343.50;7309728;19;154643;-38
2022/03/16 05:31:44;;;;;;;37.90;3.22;;;;;;;20.53;43.72;100348.63;7312770;19;129730;-39
2022/03/16 05:34:09;;;;;;;18.88;1.98;;;;;;;20.52;44.72;100346.13;7308238;19;158343;-41
2022/03/16 05:36:36;;;;;;;29.02;2.67;;;;;;;20.41;44.45;100339.06;7311007;19;130310;-38
2022/03/16 05:39:03;;;;;;;41.10;3.30;;;;;;;20.50;43.95;100350.63;7309664;19;129468;-37
2022/03/16 05:41:29;;;;;;;41.65;3.67;;;;;;;20.45;43.98;100348.34;7310836;19;130181;-38
2022/03/16 05:43:54;;;;;;;28.90;2.83;;;;;;;20.52;44.34;100359.19;7309994;19;129789;-38
2022/03/16 05:46:19;;;;;;;26.73;2.58;;;;;;;20.51;43.96;100365.38;7309272;19;159263;-37
2022/03/16 05:48:45;;;;;;;33.47;2.90;;;;;;;20.51;44.68;100362.75;7307497;19;154538;-38
2022/03/16 05:51:10;;;;;;;28.65;2.70;;;;;;;20.51;43.94;100362.75;7309240;19;154125;-39
2022/03/16 05:53:35;;;;;;;44.07;3.87;;;;;;;20.51;43.99;100360.94;7310178;19;159755;-40
2022/03/16 05:56:01;;;;;;;36.08;3.35;;;;;;;20.52;44.42;100369.63;7308067;19;130900;-38
2022/03/16 05:58:26;;;;;;;28.40;2.85;;;;;;;20.52;43.93;100380.06;7311171;19;129408;-38
2022/03/16 06:00:52;;;;;;;20.02;2.25;;;;;;;20.51;44.17;100373.19;7311231;19;130365;-38
2022/03/16 06:03:17;;;;;;;30.65;2.78;;;;;;;20.51;44.38;100374.00;7306856;19;156293;-38
2022/03/16 06:05:42;;;;;;;62.60;4.80;;;;;;;20.52;44.59;100374.84;7305269;19;140766;-39
2022/03/16 06:08:08;;;;;;;31.15;2.92;;;;;;;20.50;44.32;100381.97;7307616;19;151225;-39
2022/03/16 06:10:33;;;;;;;37.25;3.38;;;;;;;20.54;44.54;100388.63;7306191;19;153831;-39
2022/03/16 06:13:05;;;;;;;33.55;3.15;;;;;;;20.54;43.87;100388.63;7307000;19;144184;-38
2022/03/16 06:15:38;;;;;;;49.25;4.53;;;;;;;20.52;44.07;100390.53;7306169;19;129196;-39
2022/03/16 06:18:03;;;;;;;38.45;3.33;;;;;;;20.51;44.15;100381.84;7309529;19;129502;-38
2022/03/16 06:20:29;;;;;;;29.10;2.58;;;;;;;20.54;43.83;100388.63;7305180;19;154501;-38
2022/03/16 06:22:55;;;;;;;42.95;4.10;;;;;;;20.43;44.53;100370.28;7310102;19;130847;-40
2022/03/16 06:25:20;;;;;;;47.77;4.37;;;;;;;20.51;44.33;100383.66;7307963;19;136484;-39
2022/03/16 06:27:46;;;;;;;24.98;2.42;;;;;;;20.54;43.95;100388.63;7311895;19;129651;-39
2022/03/16 06:30:12;;;;;;;18.88;1.90;;;;;;;20.51;44.50;100396.72;7307779;19;128960;-40
2022/03/16 06:32:37;;;;;;;17.55;1.75;;;;;;;20.50;44.01;100402.84;7311554;19;130444;-39
2022/03/16 06:35:05;;;;;;;25.58;2.35;;;;;;;20.52;43.79;100403.59;7309195;19;130294;-38
2022/03/16 06:37:31;;;;;;;26.83;2.40;;;;;;;20.44;44.00;100392.88;7311317;19;129177;-38
2022/03/16 06:39:56;;;;;;;21.70;2.30;;;;;;;20.47;44.35;100393.50;7309131;19;129402;-38
2022/03/16 06:42:21;;;;;;;26.42;2.53;;;;;;;20.53;44.56;100405.25;7310847;19;129340;-40
2022/03/16 06:44:47;;;;;;;34.03;3.03;;;;;;;20.52;43.95;100407.03;7309872;19;130731;-38
2022/03/16 06:47:12;;;;;;;22.10;2.13;;;;;;;20.53;43.97;100408.69;7308951;19;145983;-39
2022/03/16 06:49:37;;;;;;;22.70;2.37;;;;;;;20.51;43.91;100415.00;7307935;19;154134;-38
2022/03/16 06:52:03;;;;;;;26.65;2.67;;;;;;;20.55;44.56;100417.25;7307594;19;157874;-38
2022/03/16 06:54:29;;;;;;;23.92;2.45;;;;;;;20.51;44.56;100430.66;7311399;19;131469;-39
2022/03/16 06:56:54;;;;;;;23.83;2.65;;;;;;;20.54;44.60;100430.44;7317060;19;129262;-40
2022/03/16 06:59:19;;;;;;;19.90;2.25;;;;;;;20.53;44.38;100433.97;7317257;19;129116;-38
2022/03/16 07:01:44;;;;;;;27.07;2.60;;;;;;;20.54;43.98;100435.66;7316100;19;158735;-39
2022/03/16 07:04:10;;;;;;;24.10;2.57;;;;;;;20.51;44.26;100425.44;7315411;19;159158;-38
2022/03/16 07:06:35;;;;;;;23.20;2.23;;;;;;;20.53;44.58;100436.59;7315577;19;153446;-38
2022/03/16 07:09:00;;;;;;;25.13;2.53;;;;;;;20.52;44.30;100442.78;7315463;19;154123;-38
2022/03/16 07:11:25;;;;;;;10.68;1.77;;;;;;;20.45;44.44;100425.88;7315250;19;158851;-38
2022/03/16 07:16:42;;;;;;;18.85;2.15;;;;;;;20.50;44.03;100453.34;7314836;19;128923;-39
2022/03/16 07:19:07;;;;;;;31.73;3.20;;;;;;;20.48;44.10;100446.53;7314591;19;154042;-39
2022/03/16 07:21:33;;;;;;;41.38;3.88;;;;;;;20.52;44.43;100458.44;7315703;19;130160;-39
2022/03/16 07:23:58;;;;;;;26.38;2.83;;;;;;;20.50;44.09;100461.16;7316147;19;131002;-38
2022/03/16 07:26:23;;;;;;;31.02;3.22;;;;;;;20.50;44.71;100466.41;7316287;19;129124;-39
2022/03/16 07:28:49;;;;;;;25.40;2.75;;;;;;;20.52;43.98;100463.66;7316239;19;142313;-38
2022/03/16 07:31:14;;;;;;;23.83;2.47;;;;;;;20.51;44.26;100462.81;7317659;19;130280;-38
2022/03/16 07:33:39;;;;;;;25.90;2.57;;;;;;;20.52;44.02;100458.44;7310128;19;158550;-39
2022/03/16 07:36:04;;;;;;;26.83;2.63;;;;;;;20.52;44.13;100463.66;7310027;19;154750;-38
2022/03/16 07:38:30;;;;;;;19.63;2.30;;;;;;;20.47;44.64;100450.94;7314877;19;153904;-38
2022/03/16 07:40:55;;;;;;;32.80;3.33;;;;;;;20.50;43.69;100461.16;7313950;19;158247;-38
2022/03/16 07:43:20;;;;;;;22.88;2.40;;;;;;;20.52;44.05;100458.44;7316080;19;155684;-38
2022/03/16 07:45:45;;;;;;;25.23;2.55;;;;;;;20.46;44.04;100458.91;7314346;19;154718;-39
2022/03/16 07:48:11;;;;;;;26.77;2.90;;;;;;;20.51;44.27;100473.28;7315381;19;154828;-39
2022/03/16 07:50:36;;;;;;;30.48;3.08;;;;;;;20.51;44.17;100473.28;7311069;19;159436;-38
2022/03/16 07:53:03;;;;;;;24.42;2.55;;;;;;;20.53;43.96;100475.78;7316563;19;129542;-39
2022/03/16 07:55:28;;;;;;;47.47;4.70;;;;;;;20.53;44.26;100478.38;7314069;19;129494;-40
2022/03/16 07:57:55;;;;;;;25.63;2.72;;;;;;;20.52;44.47;100477.56;7315653;19;129035;-40
2022/03/16 08:00:21;;;;;;;36.63;3.65;;;;;;;20.53;44.17;100481.00;7313790;19;130220;-38
2022/03/16 08:02:46;;;;;;;21.63;2.47;;;;;;;20.52;44.14;100484.56;7315767;19;130400;-38
2022/03/16 08:05:14;;;;;;;25.38;2.72;;;;;;;20.53;44.32;100486.22;7314333;19;128840;-38
2022/03/16 08:07:39;;;;;;;22.48;2.50;;;;;;;20.54;44.46;100491.34;7315148;19;128893;-38
2022/03/16 08:10:05;;;;;;;14.88;1.80;;;;;;;20.54;43.96;100488.72;7312249;19;130268;-39
2022/03/16 08:12:30;;;;;;;28.30;2.65;;;;;;;20.54;44.30;100495.75;7315112;19;130410;-38
2022/03/16 08:14:56;;;;;;;14.95;2.00;;;;;;;20.53;43.85;100496.66;7313446;19;129497;-38
2022/03/16 08:17:22;;;;;;;27.23;2.88;;;;;;;20.54;44.14;100506.19;7314075;19;148903;-38
2022/03/16 08:19:47;;;;;;;23.00;2.53;;;;;;;20.52;43.99;100510.69;7314183;19;130188;-38
2022/03/16 08:22:13;;;;;;;28.77;3.15;;;;;;;20.53;44.06;100507.97;7314077;19;131522;-39
2022/03/16 08:24:38;;;;;;;21.70;2.43;;;;;;;20.53;43.99;100504.50;7314116;19;150441;-37
2022/03/16 08:27:04;;;;;;;23.77;2.63;;;;;;;20.54;44.07;100503.59;7313018;19;153931;-39
2022/03/16 08:29:29;;;;;;;26.00;2.72;;;;;;;20.52;44.48;100516.75;7313848;19;130434;-40
2022/03/16 08:31:54;;;;;;;36.08;3.65;;;;;;;20.51;44.54;100519.47;7312208;19;159835;-38
2022/03/16 08:34:20;;;;;;;34.63;3.70;;;;;;;20.52;44.69;100515.91;7313230;19;129313;-39
2022/03/16 08:36:46;;;;;;;22.27;2.45;;;;;;;20.53;44.42;100517.56;7314724;19;128834;-39
2022/03/16 08:39:11;;;;;;;23.63;2.78;;;;;;;20.54;43.97;100519.25;7314526;19;130288;-39
2022/03/16 08:41:37;;;;;;;4.45;1.25;;;;;;;20.52;44.57;100514.16;7314854;19;129440;-38
2022/03/16 08:44:02;;;;;;;34.08;3.47;;;;;;;20.54;44.26;100516.63;7313187;19;155174;-38
2022/03/16 08:46:29;;;;;;;26.02;2.88;;;;;;;20.54;44.65;100519.25;7314028;19;130661;-38
2022/03/16 08:48:55;;;;;;;28.05;3.20;;;;;;;20.45;44.35;100504.22;7313339;19;129196;-38
2022/03/16 08:51:20;;;;;;;26.45;2.95;;;;;;;20.53;43.90;100522.78;7313459;19;158503;-39
2022/03/16 08:53:45;;;;;;;22.23;2.67;;;;;;;20.52;44.50;100526.38;7314897;19;129020;-38
2022/03/16 08:56:11;;;;;;;27.55;2.60;;;;;;;20.52;44.15;100531.59;7311129;19;154782;-38
2022/03/16 08:58:36;;;;;;;16.75;2.03;;;;;;;20.54;44.17;100534.94;7314402;19;131157;-39
2022/03/16 09:01:02;;;;;;;23.00;2.42;;;;;;;20.54;44.07;100532.31;7315217;19;129255;-37
2022/03/16 09:03:27;;;;;;;31.13;3.38;;;;;;;20.53;44.04;100533.25;7311169;19;155189;-38
2022/03/16 09:05:52;;;;;;;25.25;2.80;;;;;;;20.54;44.29;100532.31;7313789;19;129161;-39
2022/03/16 09:08:18;;;;;;;26.13;2.78;;;;;;;20.56;43.87;100530.44;7313752;19;128952;-38
2022/03/16 09:10:44;;;;;;;20.33;2.37;;;;;;;20.54;44.39;100535.75;7312003;19;130449;-38
2022/03/16 09:13:10;;;;;;;23.35;2.75;;;;;;;20.57;43.84;100539.94;7314263;19;129203;-38
2022/03/16 09:15:35;;;;;;;10.02;1.70;;;;;;;20.57;44.06;100532.94;7311674;19;129520;-38
2022/03/16 09:18:01;;;;;;;47.88;4.72;;;;;;;20.54;44.04;100534.94;7308675;19;158632;-40
2022/03/16 09:20:26;;;;;;;23.38;2.72;;;;;;;20.54;44.15;100537.53;7311561;19;130403;-38
2022/03/16 09:22:51;;;;;;;24.48;2.92;;;;;;;20.53;43.88;100534.09;7313274;19;149603;-38
2022/03/16 09:25:16;;;;;;;35.95;3.78;;;;;;;20.54;44.12;100535.75;7313353;19;129391;-41
2022/03/16 09:27:42;;;;;;;10.07;1.80;;;;;;;20.55;44.32;100537.44;7312464;19;158116;-39
2022/03/16 09:30:08;;;;;;;25.58;2.90;;;;;;;20.53;44.10;100528.03;7310194;19;131222;-38
2022/03/16 09:32:33;;;;;;;24.80;3.07;;;;;;;20.55;44.22;100533.97;7314005;19;128954;-38
2022/03/16 09:34:59;;;;;;;30.60;3.28;;;;;;;20.56;43.89;100533.06;7311684;19;129338;-38
2022/03/16 09:37:24;;;;;;;25.47;3.03;;;;;;;20.55;43.88;100537.44;7312484;19;129288;-38
2022/03/16 09:39:50;;;;;;;25.95;3.20;;;;;;;20.53;44.04;100534.09;7308839;19;149211;-39
2022/03/16 09:42:15;;;;;;;21.50;2.67;;;;;;;20.53;44.37;100538.47;7312330;19;154572;-38
2022/03/16 09:44:41;;;;;;;28.63;2.97;;;;;;;20.55;43.80;100537.44;7310489;19;154166;-38
2022/03/16 09:47:10;;;;;;;35.33;3.67;;;;;;;20.53;44.42;100533.25;7312108;19;131565;-38
2022/03/16 09:49:37;;;;;;;22.17;2.67;;;;;;;20.48;43.93;100525.75;7311035;19;131207;-39
2022/03/16 09:52:03;;;;;;;24.88;2.95;;;;;;;20.54;44.17;100532.31;7311171;19;129031;-40
2022/03/16 09:54:29;;;;;;;26.00;2.83;;;;;;;20.57;44.47;100539.94;7312485;19;129021;-38
2022/03/16 09:56:54;;;;;;;26.85;3.28;;;;;;;20.49;44.00;100523.97;7311206;19;158396;-38
2022/03/16 09:59:22;;;;;;;25.33;3.08;;;;;;;20.55;44.25;100534.81;7312573;19;130391;-38
2022/03/16 10:01:57;;;;;;;42.35;4.35;;;;;;;20.56;43.86;100538.28;7313101;19;129428;-38
2022/03/16 10:04:30;;;;;;;30.40;3.28;;;;;;;20.56;44.23;100540.88;7311849;19;129107;-38
2022/03/16 10:06:55;;;;;;;25.20;2.67;;;;;;;20.55;44.44;100544.41;7312515;19;130638;-38
2022/03/16 10:15:20;;;;;;;30.48;3.22;;;;;;;20.54;44.09;100545.38;7310862;19;128955;-39
2022/03/16 10:18:00;;;;;;;21.33;2.63;;;;;;;20.53;43.98;100539.31;7310783;19;130878;-38
2022/03/16 10:20:33;;;;;;;25.02;3.03;;;;;;;20.55;44.15;100541.81;7309626;19;130412;-38
2022/03/16 10:23:20;;;;;;;34.35;3.55;;;;;;;20.53;44.09;100538.47;7311086;19;129037;-40
2022/03/16 10:25:53;;;;;;;26.00;2.95;;;;;;;20.53;44.26;100538.47;7312028;19;129332;-36
2022/03/16 10:28:20;;;;;;;23.35;2.80;;;;;;;20.52;43.93;100537.66;7314641;19;133968;-38
2022/03/16 10:30:57;;;;;;;23.45;2.50;;;;;;;20.55;44.22;100532.19;7315788;19;131560;-36
2022/03/16 10:33:25;;;;;;;31.30;3.43;;;;;;;20.53;44.08;100533.25;7319449;19;129216;-38
2022/03/16 10:35:55;;;;;;;35.25;3.67;;;;;;;20.55;43.80;100536.59;7316365;19;129365;-38
2022/03/16 10:38:21;;;;;;;24.42;3.10;;;;;;;20.55;44.22;100531.34;7317528;19;130746;-37
2022/03/16 10:40:46;;;;;;;26.93;2.83;;;;;;;20.53;44.49;100522.78;7315724;19;131110;-38
2022/03/16 10:49:04;;;;;;;20.52;2.58;;;;;;;20.56;44.19;100533.06;7318888;19;129025;-36
2022/03/16 10:51:30;;;;;;;31.48;3.55;;;;;;;20.54;44.26;100527.09;7317903;19;129535;-37
2022/03/16 10:53:58;;;;;;;34.70;4.10;;;;;;;20.54;44.56;100534.94;7317029;19;129020;-40
2022/03/16 10:56:24;;;;;;;20.02;2.75;;;;;;;20.59;44.37;100532.81;7314800;19;128977;-36
2022/03/16 10:58:52;;;;;;;25.45;3.03;;;;;;;20.56;44.11;100533.06;7317215;19;129371;-38
2022/03/16 11:01:18;;;;;;;26.65;3.17;;;;;;;20.56;44.44;100539.09;7317829;19;131207;-36
2022/03/16 11:03:44;;;;;;;18.58;2.63;;;;;;;20.57;43.79;100534.69;7317859;19;128908;-39
2022/03/16 11:06:10;;;;;;;30.90;3.35;;;;;;;20.56;44.44;100538.28;7316385;19;128857;-38
2022/03/16 11:08:37;;;;;;;23.08;2.67;;;;;;;20.46;43.93;100522.41;7316193;19;130214;-38
2022/03/16 11:13:27;;;;;;;14.25;2.33;;;;;;;20.48;44.44;100525.75;7316322;19;128920;-39
2022/03/16 11:13:51;;;;;;;;;;;;;;;20.54;43.95;100530.50;7316509;19;130012;-35
2022/03/16 11:16:20;;;;;;;24.27;2.93;;;;;;;20.57;44.37;100535.53;7315332;19;129670;-38
2022/03/16 11:18:48;;;;;;;24.35;2.95;;;;;;;20.56;44.47;100536.47;7316843;19;130275;-39